| time (UTC) | temp F | wind direction | speed MPH | gust MPH | rain 1hr in | rain 24hr in | rain mn in | humidity % | barometer mb |
| 20260831151534 | 59 | 296 | 16.0 | 22.0 | 0.00 | 0.00 | 0.00 | 57 | 1016.2 |
| 20260831150043 | 58 | 295 | 16.0 | 23.0 | 0.00 | 0.00 | 0.00 | 58 | 1016.1 |
| 20260831144538 | 57 | 300 | 18.0 | 25.0 | 0.00 | 0.00 | 0.00 | 59 | 1015.8 |
| 20260831143038 | 56 | 281 | 15.0 | 25.0 | 0.00 | 0.00 | 0.00 | 62 | 1015.6 |
| 20260831141535 | 54 | 290 | 14.0 | 20.0 | 0.00 | 0.00 | 0.00 | 65 | 1015.5 |
| 20260831140038 | 53 | 276 | 11.0 | 18.0 | 0.00 | 0.00 | 0.00 | 67 | 1015.5 |
| 20260831134534 | 51 | 290 | 11.0 | 17.0 | 0.00 | 0.00 | 0.00 | 71 | 1015.2 |
| 20260831133035 | 49 | 270 | 10.0 | 16.0 | 0.00 | 0.00 | 0.00 | 73 | 1015.2 |
| 20260831131535 | 48 | 279 | 12.0 | 16.0 | 0.00 | 0.00 | 0.00 | 75 | 1014.9 |
| 20260831130107 | 46 | 284 | 8.0 | 11.0 | 0.00 | 0.00 | 0.00 | 78 | 1014.9 |
| 20260831124535 | 47 | 295 | 10.0 | 15.0 | 0.00 | 0.00 | 0.00 | 76 | 1014.7 |
| 20260831123033 | 47 | 290 | 9.0 | 13.0 | 0.00 | 0.00 | 0.00 | 76 | 1014.5 |
| 20260831121536 | 48 | 294 | 9.0 | 15.0 | 0.00 | 0.00 | 0.00 | 74 | 1014.5 |
| 20260831120040 | 49 | 276 | 11.0 | 17.0 | 0.00 | 0.00 | 0.00 | 72 | 1014.2 |
| 20260831114536 | 49 | 288 | 13.0 | 18.0 | 0.00 | 0.00 | 0.00 | 71 | 1014.1 |
| 20260831113038 | 49 | 266 | 11.0 | 17.0 | 0.00 | 0.00 | 0.00 | 71 | 1014.3 |
| 20260831111546 | 49 | 271 | 11.0 | 18.0 | 0.00 | 0.00 | 0.00 | 71 | 1014.2 |
| 20260831110040 | 50 | 254 | 13.0 | 19.0 | 0.00 | 0.00 | 0.00 | 71 | 1014.1 |
| 20260831104552 | 49 | 269 | 12.0 | 20.0 | 0.00 | 0.00 | 0.00 | 72 | 1014.1 |
| 20260831103039 | 49 | 273 | 12.0 | 17.0 | 0.00 | 0.00 | 0.00 | 72 | 1013.8 |
| 20260831101537 | 49 | 275 | 12.0 | 20.0 | 0.00 | 0.00 | 0.00 | 73 | 1013.6 |
| 20260831100038 | 49 | 283 | 11.0 | 19.0 | 0.00 | 0.00 | 0.00 | 73 | 1013.6 |
| 20260831094534 | 48 | 265 | 10.0 | 14.0 | 0.00 | 0.00 | 0.00 | 75 | 1013.6 |
| 20260831093046 | 48 | 281 | 5.0 | 12.0 | 0.00 | 0.00 | 0.00 | 76 | 1013.8 |
| 20260831091534 | 48 | 261 | 8.0 | 17.0 | 0.00 | 0.00 | 0.00 | 75 | 1013.8 |
| 20260831090041 | 48 | 271 | 12.0 | 16.0 | 0.00 | 0.00 | 0.00 | 74 | 1013.4 |
| 20260831084536 | 49 | 270 | 12.0 | 18.0 | 0.00 | 0.01 | 0.00 | 73 | 1013.3 |
| 20260831083038 | 49 | 246 | 10.0 | 18.0 | 0.00 | 0.01 | 0.00 | 74 | 1013.1 |
| 20260831081536 | 49 | 237 | 10.0 | 17.0 | 0.00 | 0.01 | 0.00 | 74 | 1012.9 |
| 20260831080037 | 48 | 263 | 11.0 | 17.0 | 0.00 | 0.01 | 0.00 | 76 | 1012.5 |
| 20260831074537 | 48 | 269 | 9.0 | 14.0 | 0.00 | 0.01 | 0.00 | 75 | 1012.8 |
| 20260831073037 | 49 | 242 | 11.0 | 17.0 | 0.00 | 0.01 | 0.00 | 74 | 1012.7 |
| 20260831071535 | 50 | 256 | 11.0 | 19.0 | 0.00 | 0.01 | 0.00 | 73 | 1012.8 |
| 20260831070038 | 50 | 248 | 12.0 | 20.0 | 0.00 | 0.01 | 0.00 | 72 | 1012.7 |
| 20260831064537 | 51 | 270 | 12.0 | 20.0 | 0.00 | 0.01 | 0.00 | 71 | 1012.7 |
| 20260831063035 | 52 | 275 | 13.0 | 23.0 | 0.00 | 0.01 | 0.00 | 69 | 1012.7 |
| 20260831061535 | 52 | 242 | 10.0 | 20.0 | 0.00 | 0.01 | 0.00 | 68 | 1013.0 |
| 20260831060043 | 52 | 242 | 12.0 | 20.0 | 0.00 | 0.01 | 0.00 | 67 | 1012.8 |
| 20260831054537 | 53 | 253 | 13.0 | 22.0 | 0.00 | 0.01 | 0.01 | 66 | 1012.7 |
| 20260831053036 | 53 | 257 | 13.0 | 19.0 | 0.00 | 0.01 | 0.01 | 65 | 1012.5 |
| 20260831051538 | 53 | 263 | 14.0 | 23.0 | 0.00 | 0.01 | 0.01 | 66 | 1012.5 |
| 20260831050037 | 53 | 276 | 13.0 | 22.0 | 0.00 | 0.01 | 0.01 | 67 | 1012.4 |
| 20260831044536 | 53 | 271 | 14.0 | 20.0 | 0.00 | 0.01 | 0.01 | 66 | 1012.6 |
| 20260831043037 | 54 | 291 | 15.0 | 22.0 | 0.00 | 0.01 | 0.01 | 66 | 1012.5 |
| 20260831041536 | 54 | 296 | 13.0 | 24.0 | 0.00 | 0.01 | 0.01 | 64 | 1012.7 |
| 20260831040035 | 58 | 292 | 15.0 | 23.0 | 0.00 | 0.01 | 0.01 | 52 | 1012.6 |
| 20260831034537 | 58 | 267 | 18.0 | 26.0 | 0.00 | 0.01 | 0.01 | 51 | 1012.5 |
| 20260831033039 | 59 | 267 | 17.0 | 28.0 | 0.00 | 0.01 | 0.01 | 51 | 1012.2 |
| 20260831031539 | 59 | 257 | 17.0 | 29.0 | 0.00 | 0.01 | 0.01 | 50 | 1012.2 |
| 20260831030038 | 58 | 259 | 18.0 | 29.0 | 0.00 | 0.01 | 0.01 | 51 | 1011.9 |
| 20260831024541 | 59 | 247 | 17.0 | 29.0 | 0.00 | 0.01 | 0.01 | 50 | 1011.9 |
| 20260831023037 | 59 | 250 | 19.0 | 30.0 | 0.00 | 0.01 | 0.01 | 50 | 1011.7 |
| 20260831021538 | 59 | 281 | 21.0 | 31.0 | 0.00 | 0.01 | 0.01 | 50 | 1011.4 |
| 20260831020036 | 59 | 243 | 16.0 | 27.0 | 0.00 | 0.01 | 0.01 | 50 | 1011.4 |
| 20260831014540 | 60 | 255 | 18.0 | 34.0 | 0.00 | 0.01 | 0.01 | 49 | 1011.3 |
| 20260831013039 | 61 | 261 | 17.0 | 34.0 | 0.00 | 0.01 | 0.01 | 48 | 1011.2 |
| 20260831011536 | 61 | 255 | 18.0 | 33.0 | 0.00 | 0.01 | 0.01 | 47 | 1011.3 |
| 20260831010040 | 59 | 289 | 13.0 | 25.0 | 0.00 | 0.01 | 0.01 | 52 | 1011.5 |
| 20260831004553 | 59 | 313 | 15.0 | 28.0 | 0.00 | 0.02 | 0.01 | 56 | 1011.6 |
| 20260831003034 | 60 | 288 | 14.0 | 23.0 | 0.00 | 0.02 | 0.01 | 54 | 1011.6 |
| 20260831001534 | 59 | 297 | 18.0 | 30.0 | 0.00 | 0.02 | 0.01 | 54 | 1011.7 |
| 20260831000035 | 61 | 277 | 24.0 | 34.0 | 0.00 | 0.02 | 0.01 | 46 | 1011.3 |
| 20260830234551 | 62 | 277 | 23.0 | 34.0 | 0.00 | 0.30 | 0.01 | 45 | 1011.2 |
| 20260830233034 | 63 | 286 | 21.0 | 37.0 | 0.00 | 0.30 | 0.01 | 43 | 1011.1 |
| 20260830231535 | 63 | 275 | 20.0 | 35.0 | 0.00 | 0.30 | 0.01 | 44 | 1011.1 |
| 20260830230036 | 63 | 282 | 27.0 | 39.0 | 0.00 | 0.30 | 0.01 | 42 | 1011.1 |
| 20260830224536 | 64 | 237 | 23.0 | 34.0 | 0.00 | 0.30 | 0.01 | 43 | 1011.1 |
| 20260830223040 | 62 | 236 | 18.0 | 25.0 | 0.00 | 0.30 | 0.01 | 46 | 1011.4 |
| 20260830221540 | 61 | 257 | 17.0 | 29.0 | 0.00 | 0.30 | 0.01 | 47 | 1011.5 |
| 20260830220037 | 61 | 247 | 21.0 | 31.0 | 0.00 | 0.30 | 0.01 | 48 | 1011.7 |
| 20260830214537 | 61 | 271 | 21.0 | 29.0 | 0.00 | 0.30 | 0.01 | 47 | 1011.8 |
| 20260830213038 | 61 | 232 | 20.0 | 36.0 | 0.00 | 0.30 | 0.01 | 46 | 1011.9 |
| 20260830211534 | 62 | 238 | 21.0 | 34.0 | 0.00 | 0.30 | 0.01 | 45 | 1011.9 |
| 20260830210041 | 62 | 255 | 18.0 | 37.0 | 0.00 | 0.30 | 0.01 | 45 | 1011.9 |
| 20260830204534 | 63 | 279 | 20.0 | 36.0 | 0.00 | 0.30 | 0.01 | 43 | 1011.9 |
| 20260830203046 | 62 | 360 | 26.0 | 36.0 | 0.00 | 0.30 | 0.01 | 46 | 1011.7 |
| 20260830201536 | 61 | 277 | 23.0 | 34.0 | 0.00 | 0.30 | 0.01 | 47 | 1011.8 |
| 20260830200032 | 62 | 266 | 23.0 | 34.0 | 0.00 | 0.30 | 0.01 | 45 | 1011.6 |
| 20260830194538 | 64 | 298 | 18.0 | 33.0 | 0.00 | 0.30 | 0.01 | 41 | 1011.6 |
| 20260830193038 | 63 | 238 | 21.0 | 34.0 | 0.00 | 0.30 | 0.01 | 42 | 1011.8 |
| 20260830191535 | 63 | 263 | 18.0 | 34.0 | 0.00 | 0.30 | 0.01 | 43 | 1011.7 |
| 20260830190038 | 63 | 246 | 20.0 | 31.0 | 0.00 | 0.30 | 0.01 | 41 | 1011.6 |
| 20260830184536 | 63 | 246 | 19.0 | 32.0 | 0.00 | 0.30 | 0.01 | 41 | 1011.5 |
| 20260830183036 | 63 | 276 | 19.0 | 30.0 | 0.00 | 0.30 | 0.01 | 40 | 1011.7 |
| 20260830181536 | 63 | 257 | 19.0 | 28.0 | 0.00 | 0.30 | 0.01 | 42 | 1011.8 |
| 20260830180042 | 63 | 239 | 18.0 | 27.0 | 0.00 | 0.30 | 0.01 | 41 | 1011.9 |
| 20260830174540 | 61 | 231 | 15.0 | 23.0 | 0.00 | 0.30 | 0.01 | 50 | 1011.9 |
| 20260830173050 | 60 | 241 | 15.0 | 22.0 | 0.00 | 0.30 | 0.01 | 50 | 1012.0 |
| 20260830171539 | 60 | 274 | 12.0 | 20.0 | 0.00 | 0.30 | 0.01 | 50 | 1012.3 |
| 20260830170035 | 59 | 209 | 10.0 | 16.0 | 0.00 | 0.30 | 0.01 | 54 | 1012.3 |
| 20260830164536 | 59 | 219 | 10.0 | 21.0 | 0.00 | 0.30 | 0.01 | 54 | 1012.5 |
| 20260830163040 | 58 | 209 | 8.0 | 15.0 | 0.00 | 0.30 | 0.01 | 52 | 1012.5 |
| 20260830161534 | 59 | 243 | 8.0 | 14.0 | 0.00 | 0.30 | 0.01 | 50 | 1012.3 |
| 20260830160037 | 58 | 258 | 8.0 | 15.0 | 0.00 | 0.30 | 0.01 | 50 | 1012.6 |
| 20260830154538 | 58 | 254 | 8.0 | 12.0 | 0.00 | 0.30 | 0.01 | 50 | 1012.6 |
| 20260830153037 | 57 | 244 | 5.0 | 10.0 | 0.00 | 0.30 | 0.01 | 52 | 1012.7 |